»·PEaware :: N53176 KOSH-KOSH

N53176 :: KOSH-KOSH

FLIGHT INFORMATION

Flight Status: Arrived
Operator: Privately registered:
United States
More flights under this callsign
Pilot: Bill F. (18685)
Aircraft: CESSNA 172 SKYHAWK
(C172)
More flights by this aircraft type
Origin: KOSH Wittman Regl
United States
Destination: KOSH Wittman Regl
United States
More flights between these airports :: More routes between these airports
Route: +BF
File this flight plan on PilotEdge
Remarks:
Altitude:
(Current/Filed)
1,800ft
Speed:
(Current/Filed)
112kts
Departed: 25-Jul-20 02:07 PM
Arrived: 25-Jul-20 02:40 PM
Distance/Time
Traveled:
1nm/0:33
Distance/Time
To Go:
Arrived

Flight Plot

Page will automatically refresh every two minutes.

Flight plan parsing failed; only flown route is shown


Map Options




Map Legend


Flown Route
Filed Route
Departure Airport
Arrival Airport
Navaid (VOR, NDB)
Fix

Horizontal Profiles

Position Reports

Time Latitude Longitude Heading Altitude Ground
Speed
25-Jul-20 14:03 43.769253 -88.485068 253 792ft 0kts
25-Jul-20 14:04 43.770475 -88.485346 0 791ft 6kts
25-Jul-20 14:05 43.771338 -88.485650 283 791ft 7kts
25-Jul-20 14:06 43.771967 -88.503454 279 1120ft 74kts
25-Jul-20 14:07 43.777766 -88.530051 284 1889ft 74kts
25-Jul-20 14:08 43.782052 -88.559502 275 2664ft 76kts
25-Jul-20 14:09 43.785062 -88.590183 282 3387ft 78kts
25-Jul-20 14:10 43.793287 -88.628693 286 3549ft 124kts
25-Jul-20 14:11 43.803759 -88.676238 286 3547ft 123kts
25-Jul-20 14:12 43.811755 -88.724523 280 3547ft 123kts
25-Jul-20 14:13 43.818612 -88.773009 280 3547ft 123kts
25-Jul-20 14:14 43.825586 -88.821970 280 3547ft 123kts
25-Jul-20 14:15 43.832232 -88.869961 278 3520ft 126kts
25-Jul-20 14:16 43.837804 -88.922770 278 2988ft 137kts
25-Jul-20 14:17 43.838466 -88.976713 258 2367ft 124kts
25-Jul-20 14:18 43.827931 -89.016306 242 1741ft 98kts
25-Jul-20 14:19 43.811007 -89.051906 233 1796ft 108kts
25-Jul-20 14:20 43.783592 -89.066158 144 1796ft 121kts
25-Jul-20 14:21 43.785094 -89.026149 60 1793ft 94kts
25-Jul-20 14:22 43.796807 -88.990735 65 1795ft 99kts
25-Jul-20 14:23 43.806838 -88.959198 64 1798ft 85kts
25-Jul-20 14:24 43.815918 -88.926440 69 1795ft 84kts
25-Jul-20 14:25 43.827068 -88.897219 59 1792ft 75kts
25-Jul-20 14:26 43.838201 -88.869666 63 1799ft 99kts
25-Jul-20 14:27 43.849568 -88.837662 59 1795ft 89kts
25-Jul-20 14:28 43.862985 -88.810145 52 1799ft 94kts
25-Jul-20 14:29 43.878968 -88.781383 49 1795ft 91kts
25-Jul-20 14:30 43.894681 -88.756912 45 1797ft 86kts
25-Jul-20 14:31 43.911977 -88.731739 42 1797ft 94kts
25-Jul-20 14:32 43.931594 -88.708639 39 1794ft 93kts
25-Jul-20 14:33 43.951452 -88.685127 50 1763ft 91kts
25-Jul-20 14:34 43.967646 -88.656955 56 1864ft 93kts
25-Jul-20 14:35 43.981897 -88.625876 59 1803ft 91kts
25-Jul-20 14:36 43.994525 -88.595540 54 1776ft 89kts
25-Jul-20 14:37 43.998648 -88.564272 89 1481ft 83kts
25-Jul-20 14:38 43.991521 -88.558371 266 812ft 66kts
25-Jul-20 14:39 43.992474 -88.566620 261 792ft 18kts
25-Jul-20 14:40 43.992614 -88.571891 277 796ft 11kts
25-Jul-20 14:41 43.991967 -88.576021 195 808ft 10kts
25-Jul-20 14:42 43.990957 -88.572578 90 802ft 9kts
25-Jul-20 14:43 43.990915 -88.567268 93 795ft 10kts
25-Jul-20 14:44 43.990941 -88.563295 92 786ft 8kts
25-Jul-20 14:45 43.989550 -88.556941 127 785ft 30kts
25-Jul-20 14:46 43.986548 -88.558022 177 793ft 13kts
25-Jul-20 14:47 43.983265 -88.557994 183 791ft 10kts
25-Jul-20 14:48 43.980054 -88.558038 178 793ft 12kts
25-Jul-20 14:49 43.976875 -88.558076 176 795ft 7kts
25-Jul-20 14:50 43.973024 -88.558136 178 802ft 14kts
25-Jul-20 14:51 43.967735 -88.558203 174 809ft 7kts
25-Jul-20 14:52 43.968448 -88.556458 358 806ft 1kts
25-Jul-20 14:53 43.970233 -88.543050 147 1234ft 92kts

Navigation Log

Ident Type
Flight plan parsing failed, navigation log unavailable